createdAt,value
2022-09-20T00:01:31.801Z,13.30
2022-09-20T00:04:00.617Z,13.20
2022-09-20T00:06:30.197Z,12.70
2022-09-20T00:08:59.058Z,12.60
2022-09-20T00:11:28.596Z,13.70
2022-09-20T00:13:58.438Z,12.50
2022-09-20T00:16:31.959Z,12.50
2022-09-20T00:19:02.315Z,13.60
2022-09-20T00:21:30.599Z,13.20
2022-09-20T00:23:58.066Z,13.20
2022-09-20T00:26:26.879Z,13.60
2022-09-20T00:28:54.570Z,13.30
2022-09-20T00:31:22.619Z,13.30
2022-09-20T00:34:07.935Z,13.20
2022-09-20T00:36:34.621Z,12.90
2022-09-20T00:39:02.970Z,12.90
2022-09-20T00:41:31.554Z,13.30
2022-09-20T00:43:59.870Z,13.20
2022-09-20T00:46:44.735Z,13.00
2022-09-20T00:49:22.337Z,13.40
2022-09-20T00:51:57.141Z,14.40
2022-09-20T00:54:26.533Z,13.10
2022-09-20T00:56:53.389Z,13.10
2022-09-20T00:59:34.561Z,13.10
2022-09-20T01:02:09.831Z,14.30
2022-09-20T01:04:42.164Z,13.60
2022-09-20T01:07:13.280Z,14.10
2022-09-20T01:09:39.833Z,13.30
2022-09-20T01:12:13.276Z,14.10
2022-09-20T01:14:43.037Z,13.30
2022-09-20T01:17:12.394Z,12.80
2022-09-20T01:20:00.489Z,13.60
2022-09-20T01:22:58.235Z,12.60
2022-09-20T01:25:53.659Z,12.70
2022-09-20T01:28:20.969Z,13.20
2022-09-20T01:31:28.055Z,14.00
2022-09-20T01:34:10.933Z,13.20
2022-09-20T01:36:44.295Z,13.10
2022-09-20T01:39:22.943Z,12.70
2022-09-20T01:42:04.537Z,13.30
2022-09-20T01:45:01.572Z,13.30
2022-09-20T01:47:55.044Z,12.70
2022-09-20T01:50:52.489Z,12.80
2022-09-20T01:53:56.562Z,13.30
2022-09-20T01:56:59.065Z,13.40
2022-09-20T01:59:37.520Z,12.80
2022-09-20T02:02:19.623Z,13.00
2022-09-20T02:04:55.684Z,13.00
2022-09-20T02:07:42.573Z,12.40
2022-09-20T02:10:27.574Z,12.50
2022-09-20T02:13:03.933Z,12.00
2022-09-20T02:15:51.089Z,12.20
2022-09-20T02:18:36.123Z,12.20
2022-09-20T02:21:30.977Z,11.70
2022-09-20T02:24:00.558Z,13.30
2022-09-20T02:26:45.079Z,12.30
2022-09-20T02:29:32.534Z,11.80
2022-09-20T02:32:24.600Z,11.80
2022-09-20T02:35:10.962Z,12.70
2022-09-20T02:38:05.118Z,11.60
2022-09-20T02:40:50.625Z,12.60
2022-09-20T02:44:03.875Z,12.90
2022-09-20T02:46:40.381Z,13.30
2022-09-20T02:49:29.870Z,12.80
2022-09-20T02:52:11.253Z,13.40
2022-09-20T02:54:57.049Z,13.60
2022-09-20T02:57:41.734Z,13.60
2022-09-20T03:00:16.421Z,13.60
2022-09-20T03:03:11.110Z,13.00
2022-09-20T03:06:08.558Z,14.20
2022-09-20T03:08:54.864Z,13.90
2022-09-20T03:11:24.290Z,14.20
2022-09-20T03:14:10.317Z,13.90
2022-09-20T03:17:05.378Z,13.50
2022-09-20T03:20:09.362Z,14.30
2022-09-20T03:22:51.848Z,13.80
2022-09-20T03:25:51.267Z,14.10
2022-09-20T03:28:43.434Z,14.40
2022-09-20T03:31:21.139Z,13.80
2022-09-20T03:33:53.628Z,13.70
2022-09-20T03:36:37.049Z,13.20
2022-09-20T03:39:06.394Z,13.50
2022-09-20T03:42:01.111Z,13.10
2022-09-20T03:44:53.480Z,13.60
2022-09-20T03:47:42.346Z,13.50
2022-09-20T03:50:18.051Z,13.50
2022-09-20T03:53:18.818Z,12.50
2022-09-20T03:56:06.790Z,13.20
2022-09-20T03:58:59.621Z,13.10
2022-09-20T04:01:38.523Z,13.30
2022-09-20T04:04:40.278Z,13.20
2022-09-20T04:07:31.484Z,13.20
2022-09-20T04:10:19.693Z,13.00
2022-09-20T04:13:10.954Z,12.40
2022-09-20T04:16:03.796Z,12.10
2022-09-20T04:18:34.855Z,14.40
2022-09-20T04:21:25.715Z,16.50
2022-09-20T04:24:17.573Z,15.80
2022-09-20T04:26:49.914Z,16.90
2022-09-20T04:29:29.402Z,19.20
2022-09-20T04:32:03.572Z,18.30
2022-09-20T04:35:09.208Z,18.60
2022-09-20T04:37:38.154Z,18.70
2022-09-20T04:40:20.534Z,18.70
2022-09-20T04:42:55.961Z,17.30
2022-09-20T04:45:40.680Z,15.80
2022-09-20T04:48:29.039Z,13.90
2022-09-20T04:52:00.334Z,14.80
2022-09-20T04:54:46.717Z,12.40
2022-09-20T04:57:48.410Z,11.80
2022-09-20T05:00:32.124Z,12.10
2022-09-20T05:03:19.629Z,12.00
2022-09-20T05:06:05.291Z,11.20
2022-09-20T05:08:45.929Z,12.10
2022-09-20T05:11:17.066Z,11.30
2022-09-20T05:14:16.568Z,11.30
2022-09-20T05:17:05.698Z,11.80
2022-09-20T05:20:08.326Z,11.80
2022-09-20T05:23:02.844Z,11.90
2022-09-20T05:25:54.188Z,12.60
2022-09-20T05:28:26.563Z,12.80
2022-09-20T05:31:21.985Z,13.00
2022-09-20T05:34:04.069Z,12.30
2022-09-20T05:37:11.975Z,13.20
2022-09-20T05:39:41.346Z,12.70
2022-09-20T05:42:19.287Z,14.10
2022-09-20T05:45:23.260Z,14.10
2022-09-20T05:48:32.018Z,13.60
2022-09-20T05:51:08.769Z,12.90
2022-09-20T05:54:25.128Z,12.40
2022-09-20T05:57:21.986Z,13.70
2022-09-20T06:00:09.986Z,13.20
2022-09-20T06:02:45.547Z,13.30
2022-09-20T06:05:16.675Z,13.20
2022-09-20T06:08:04.951Z,12.30
2022-09-20T06:10:52.749Z,12.30
2022-09-20T06:14:00.615Z,12.00
2022-09-20T06:16:36.302Z,11.00
2022-09-20T06:19:20.253Z,10.70
2022-09-20T06:21:53.669Z,10.70
2022-09-20T06:24:46.490Z,12.00
2022-09-20T06:27:42.261Z,12.40
2022-09-20T06:30:23.944Z,11.60
2022-09-20T06:32:55.984Z,11.60
2022-09-20T06:35:39.316Z,11.10
2022-09-20T06:38:54.383Z,11.40
2022-09-20T06:41:30.324Z,11.70
2022-09-20T06:43:59.122Z,10.90
2022-09-20T06:46:31.424Z,11.70
2022-09-20T06:48:58.639Z,10.80
2022-09-20T06:51:28.274Z,12.10
2022-09-20T06:53:56.957Z,12.20
2022-09-20T06:56:30.854Z,12.80
2022-09-20T06:58:57.461Z,11.60
2022-09-20T07:01:30.164Z,11.30
2022-09-20T07:03:58.538Z,12.00
2022-09-20T07:06:26.804Z,12.10
2022-09-20T07:08:53.486Z,11.30
2022-09-20T07:11:22.584Z,11.60
2022-09-20T07:13:51.700Z,11.30
2022-09-20T07:16:18.387Z,13.30
2022-09-20T07:18:46.095Z,14.00
2022-09-20T07:21:15.045Z,14.40
2022-09-20T07:23:42.090Z,12.70
2022-09-20T07:26:25.318Z,14.40
2022-09-20T07:28:52.977Z,14.00
2022-09-20T07:31:22.336Z,14.00
2022-09-20T07:33:49.573Z,14.10
2022-09-20T07:36:16.696Z,16.10
2022-09-20T07:38:50.500Z,15.10
2022-09-20T07:41:22.384Z,15.80
2022-09-20T07:43:50.337Z,14.50
2022-09-20T07:46:18.719Z,15.20
2022-09-20T07:48:45.390Z,14.40
2022-09-20T07:51:13.580Z,13.40
2022-09-20T07:53:41.059Z,15.40
2022-09-20T07:56:14.745Z,14.90
2022-09-20T07:58:42.746Z,13.40
2022-09-20T08:01:12.845Z,13.50
2022-09-20T08:03:42.987Z,13.80
2022-09-20T08:06:14.621Z,14.40
2022-09-20T08:08:41.979Z,13.00
2022-09-20T08:11:12.929Z,13.50
2022-09-20T08:16:31.308Z,13.10
2022-09-20T08:19:02.055Z,12.10
2022-09-20T08:21:32.399Z,12.40
2022-09-20T08:24:00.278Z,12.60
2022-09-20T08:26:30.617Z,12.00
2022-09-20T08:28:58.985Z,12.80
2022-09-20T08:31:30.787Z,11.70
2022-09-20T08:33:58.533Z,13.00
2022-09-20T08:36:25.794Z,13.40
2022-09-20T08:41:46.471Z,14.60
2022-09-20T08:44:25.065Z,13.70
2022-09-20T08:47:02.455Z,12.20
2022-09-20T08:49:30.153Z,11.50
2022-09-20T08:51:59.339Z,13.20
2022-09-20T08:54:32.163Z,12.50
2022-09-20T08:57:06.691Z,11.60
2022-09-20T08:59:33.767Z,10.50
2022-09-20T09:02:00.678Z,10.40
2022-09-20T09:04:47.907Z,10.10
2022-09-20T09:07:20.533Z,9.30
2022-09-20T09:09:49.387Z,8.30
2022-09-20T09:12:22.725Z,8.80
2022-09-20T09:14:54.560Z,9.00
2022-09-20T09:17:27.922Z,8.10
2022-09-20T09:20:21.159Z,8.80
2022-09-20T09:22:59.505Z,8.00
2022-09-20T09:25:38.503Z,7.90
2022-09-20T09:28:07.926Z,8.10
2022-09-20T09:30:37.804Z,8.50
2022-09-20T09:33:27.646Z,8.10
2022-09-20T09:36:15.006Z,7.90
2022-09-20T09:38:44.970Z,8.30
2022-09-20T09:41:17.259Z,8.90
2022-09-20T09:43:58.859Z,8.80
2022-09-20T09:46:30.538Z,8.70
2022-09-20T09:49:09.352Z,8.80
2022-09-20T09:51:38.255Z,9.20
2022-09-20T09:54:07.689Z,8.70
2022-09-20T09:57:01.204Z,9.60
2022-09-20T09:59:45.211Z,10.60
2022-09-20T10:02:12.346Z,9.80
2022-09-20T10:05:12.866Z,9.60
2022-09-20T10:07:46.593Z,9.50
2022-09-20T10:10:45.064Z,9.10
2022-09-20T10:13:27.074Z,8.20
2022-09-20T10:16:08.898Z,8.10
2022-09-20T10:19:24.310Z,7.50
2022-09-20T10:22:02.237Z,8.40
2022-09-20T10:24:39.138Z,7.50
2022-09-20T10:27:24.403Z,7.70
2022-09-20T10:30:02.702Z,8.20
2022-09-20T10:33:03.438Z,8.90
2022-09-20T10:35:55.342Z,8.90
2022-09-20T10:38:33.510Z,7.40
2022-09-20T10:41:31.537Z,7.60
2022-09-20T10:44:12.537Z,7.30
2022-09-20T10:47:08.519Z,7.90
2022-09-20T10:50:00.548Z,7.20
2022-09-20T10:52:47.058Z,7.10
2022-09-20T10:55:39.818Z,8.10
2022-09-20T10:58:29.974Z,6.70
2022-09-20T11:01:22.097Z,6.40
2022-09-20T11:04:13.351Z,6.10
2022-09-20T11:06:55.379Z,5.30
2022-09-20T11:09:31.195Z,5.70
2022-09-20T11:12:17.257Z,5.60
2022-09-20T11:15:01.958Z,6.40
2022-09-20T11:17:31.504Z,5.00
2022-09-20T11:20:28.912Z,5.00
2022-09-20T11:23:03.814Z,4.50
2022-09-20T11:25:51.257Z,4.90
2022-09-20T11:28:41.274Z,4.30
2022-09-20T11:31:32.294Z,4.10
2022-09-20T11:34:22.777Z,4.30
2022-09-20T11:36:57.504Z,3.70
2022-09-20T11:39:27.218Z,4.50
2022-09-20T11:41:56.891Z,4.60
2022-09-20T11:44:24.196Z,4.50
2022-09-20T11:47:06.544Z,4.60
2022-09-20T11:49:48.204Z,4.50
2022-09-20T11:52:33.722Z,4.70
2022-09-20T11:55:13.299Z,5.20
2022-09-20T11:57:40.384Z,4.80
2022-09-20T12:00:09.682Z,4.70
2022-09-20T12:02:52.767Z,4.60
2022-09-20T12:05:24.954Z,5.30
2022-09-20T12:07:57.813Z,4.80
2022-09-20T12:10:32.503Z,5.40
2022-09-20T12:13:22.918Z,5.00
2022-09-20T12:16:02.993Z,4.40
2022-09-20T12:18:37.882Z,4.60
2022-09-20T12:21:05.816Z,4.00
2022-09-20T12:23:41.854Z,3.50
2022-09-20T12:26:20.489Z,3.20
2022-09-20T12:28:58.950Z,3.30
2022-09-20T12:31:25.781Z,2.90
2022-09-20T12:34:18.688Z,2.80
2022-09-20T12:37:05.489Z,2.70
2022-09-20T12:39:37.858Z,2.60
2022-09-20T12:42:10.319Z,2.50
2022-09-20T12:44:39.204Z,2.70
2022-09-20T12:47:11.517Z,2.60
2022-09-20T12:49:57.048Z,2.60
2022-09-20T12:52:44.236Z,2.20
2022-09-20T12:55:31.473Z,2.70
2022-09-20T12:58:04.204Z,2.70
2022-09-20T13:00:58.713Z,2.80
2022-09-20T13:03:39.006Z,3.00
2022-09-20T13:06:05.824Z,3.00
2022-09-20T13:08:47.721Z,3.00
2022-09-20T13:11:24.524Z,3.20
2022-09-20T13:14:06.621Z,3.10
2022-09-20T13:16:39.115Z,3.50
2022-09-20T13:19:14.347Z,3.30
2022-09-20T13:21:56.642Z,3.40
2022-09-20T13:24:25.662Z,3.40
2022-09-20T13:26:53.837Z,3.10
2022-09-20T13:29:46.848Z,3.20
2022-09-20T13:32:34.179Z,3.60
2022-09-20T13:35:09.716Z,4.00
2022-09-20T13:37:58.784Z,3.60
2022-09-20T13:40:36.180Z,4.10
2022-09-20T13:43:45.965Z,3.50
2022-09-20T13:46:16.525Z,3.00
2022-09-20T13:48:46.796Z,1.60
2022-09-20T13:51:19.396Z,1.40
2022-09-20T13:53:48.674Z,1.40
2022-09-20T13:56:35.457Z,1.50
2022-09-20T13:59:04.805Z,1.70
2022-09-20T14:01:34.860Z,1.70
2022-09-20T14:04:07.807Z,1.60
2022-09-20T14:06:35.551Z,1.60
2022-09-20T14:09:10.756Z,1.70
2022-09-20T14:11:39.645Z,1.60
2022-09-20T14:14:07.636Z,1.50
2022-09-20T14:16:39.194Z,1.70
2022-09-20T14:19:07.661Z,1.30
2022-09-20T14:21:36.254Z,1.50
2022-09-20T14:24:07.716Z,1.50
2022-09-20T14:26:37.334Z,1.50
2022-09-20T14:29:32.504Z,1.80
2022-09-20T14:32:04.949Z,1.90
2022-09-20T14:34:36.134Z,1.70
2022-09-20T14:37:09.027Z,1.90
2022-09-20T14:39:53.484Z,2.10
2022-09-20T14:42:35.300Z,2.10
2022-09-20T14:45:07.194Z,2.30
2022-09-20T14:47:52.197Z,2.20
2022-09-20T14:50:26.453Z,2.50
2022-09-20T14:53:05.399Z,2.40
2022-09-20T14:55:37.353Z,2.10
2022-09-20T14:58:11.373Z,2.00
2022-09-20T15:00:57.487Z,1.90
2022-09-20T15:03:34.202Z,1.80
2022-09-20T15:06:00.995Z,1.60
2022-09-20T15:08:27.757Z,1.00
2022-09-20T15:10:54.347Z,1.30
2022-09-20T15:13:33.102Z,0.80
2022-09-20T15:15:59.946Z,1.10
2022-09-20T15:18:33.551Z,1.30
2022-09-20T15:21:00.860Z,1.10
2022-09-20T15:23:27.969Z,0.90
2022-09-20T15:25:55.080Z,1.20
2022-09-20T15:28:21.957Z,1.00
2022-09-20T15:30:51.779Z,0.70
2022-09-20T15:33:20.793Z,1.00
2022-09-20T15:35:48.499Z,1.20
2022-09-20T15:38:19.700Z,0.80
2022-09-20T15:40:48.969Z,1.10
2022-09-20T15:43:21.885Z,1.80
2022-09-20T15:45:51.010Z,1.40
2022-09-20T15:48:20.891Z,1.20
2022-09-20T15:51:08.041Z,1.10
2022-09-20T15:53:38.157Z,1.20
2022-09-20T15:56:18.729Z,1.50
2022-09-20T15:58:48.204Z,1.80
2022-09-20T16:01:16.345Z,1.40
2022-09-20T16:03:44.409Z,1.70
2022-09-20T16:06:12.833Z,2.00
2022-09-20T16:08:41.954Z,2.20
2022-09-20T16:11:12.527Z,1.80
2022-09-20T16:13:40.250Z,2.30
2022-09-20T16:16:12.421Z,2.10
2022-09-20T16:18:57.930Z,2.50
2022-09-20T16:21:24.745Z,2.40
2022-09-20T16:23:54.005Z,2.20
2022-09-20T16:26:22.775Z,2.60
2022-09-20T16:28:50.385Z,2.40
2022-09-20T16:31:34.410Z,2.60
2022-09-20T16:34:03.664Z,2.70
2022-09-20T16:36:32.625Z,2.90
2022-09-20T16:39:00.558Z,4.00
2022-09-20T16:41:28.554Z,3.40
2022-09-20T16:43:55.848Z,4.10
2022-09-20T16:46:27.557Z,4.00
2022-09-20T16:48:56.264Z,4.20
2022-09-20T16:51:28.324Z,5.40
2022-09-20T16:53:55.097Z,5.30
2022-09-20T16:56:24.974Z,5.60
2022-09-20T16:58:53.636Z,5.10
2022-09-20T17:01:20.693Z,4.80
2022-09-20T17:03:48.149Z,4.20
2022-09-20T17:06:16.136Z,4.10
2022-09-20T17:08:44.289Z,4.20
2022-09-20T17:11:21.132Z,5.40
2022-09-20T17:13:50.982Z,5.80
2022-09-20T17:16:23.635Z,6.00
2022-09-20T17:18:58.637Z,6.40
2022-09-20T17:21:26.916Z,6.10
2022-09-20T17:23:56.122Z,6.00
2022-09-20T17:26:22.745Z,6.20
2022-09-20T17:28:52.965Z,6.40
2022-09-20T17:31:22.640Z,5.50
2022-09-20T17:33:50.093Z,5.10
2022-09-20T17:36:19.565Z,4.90
2022-09-20T17:38:47.714Z,5.50
2022-09-20T17:41:18.742Z,4.70
2022-09-20T17:43:46.427Z,4.20
2022-09-20T17:46:15.876Z,4.10
2022-09-20T17:48:48.500Z,4.10
2022-09-20T17:51:18.538Z,4.00
2022-09-20T17:53:46.184Z,4.10
2022-09-20T17:56:14.057Z,5.10
2022-09-20T17:58:41.880Z,6.40
2022-09-20T18:01:16.547Z,6.80
2022-09-20T18:03:45.910Z,6.90
2022-09-20T18:06:25.137Z,5.60
2022-09-20T18:09:06.139Z,5.50
2022-09-20T18:11:49.069Z,6.20
2022-09-20T18:14:19.697Z,5.80
2022-09-20T18:16:47.078Z,5.00
2022-09-20T18:19:15.521Z,5.50
2022-09-20T18:21:43.627Z,6.10
2022-09-20T18:24:11.908Z,5.30
2022-09-20T18:26:39.618Z,5.60
2022-09-20T18:29:10.638Z,5.40
2022-09-20T18:31:59.149Z,5.20
2022-09-20T18:34:51.274Z,4.80
2022-09-20T18:37:17.798Z,5.10
2022-09-20T18:39:44.457Z,5.10
2022-09-20T18:42:11.309Z,5.10
2022-09-20T18:44:39.890Z,5.10
2022-09-20T18:47:06.611Z,5.10
2022-09-20T18:49:33.887Z,5.00
2022-09-20T18:52:00.927Z,4.90
2022-09-20T18:54:32.945Z,5.50
2022-09-20T18:56:59.874Z,5.10
2022-09-20T18:59:27.512Z,5.10
2022-09-20T19:02:05.274Z,4.90
2022-09-20T19:05:12.109Z,5.20
2022-09-20T19:07:45.061Z,4.10
2022-09-20T19:10:14.370Z,4.30
2022-09-20T19:13:05.866Z,4.50
2022-09-20T19:16:09.575Z,4.50
2022-09-20T19:18:43.540Z,4.30
2022-09-20T19:21:10.101Z,3.80
2022-09-20T19:24:03.467Z,4.40
2022-09-20T19:26:37.471Z,5.10
2022-09-20T19:29:21.698Z,5.00
2022-09-20T19:31:50.465Z,5.30
2022-09-20T19:34:26.587Z,5.70
2022-09-20T19:37:36.217Z,5.20
2022-09-20T19:40:25.735Z,5.30
2022-09-20T19:43:15.364Z,6.00
2022-09-20T19:46:08.612Z,5.90
2022-09-20T19:48:47.352Z,5.40
2022-09-20T19:51:14.716Z,6.20
2022-09-20T19:53:41.720Z,6.20
2022-09-20T19:56:14.204Z,6.20
2022-09-20T19:58:42.877Z,6.50
2022-09-20T20:01:10.169Z,6.20
2022-09-20T20:03:37.125Z,7.10
2022-09-20T20:06:19.675Z,6.90
2022-09-20T20:09:06.109Z,6.70
2022-09-20T20:11:38.407Z,7.30
2022-09-20T20:14:23.907Z,6.80
2022-09-20T20:17:08.454Z,7.50
2022-09-20T20:19:54.357Z,7.40
2022-09-20T20:22:39.197Z,6.90
2022-09-20T20:25:25.860Z,6.70
2022-09-20T20:27:52.529Z,6.90
2022-09-20T20:30:19.754Z,6.60
2022-09-20T20:32:47.077Z,7.00
2022-09-20T20:35:15.072Z,6.70
2022-09-20T20:37:41.675Z,6.60
2022-09-20T20:40:14.712Z,6.50
2022-09-20T20:42:42.469Z,6.60
2022-09-20T20:45:10.647Z,6.50
2022-09-20T20:47:40.121Z,6.40
2022-09-20T20:50:07.357Z,7.00
2022-09-20T20:52:34.009Z,6.50
2022-09-20T20:55:00.877Z,6.40
2022-09-20T20:57:27.780Z,6.50
2022-09-20T20:59:54.522Z,6.30
2022-09-20T21:02:21.508Z,6.70
2022-09-20T21:04:48.132Z,6.50
2022-09-20T21:07:16.375Z,6.50
2022-09-20T21:09:43.046Z,6.50
2022-09-20T21:12:09.647Z,6.70
2022-09-20T21:14:37.053Z,7.10
2022-09-20T21:17:04.109Z,8.10
2022-09-20T21:19:30.858Z,7.70
2022-09-20T21:21:57.430Z,7.70
2022-09-20T21:24:24.171Z,7.80
2022-09-20T21:26:51.027Z,8.30
2022-09-20T21:29:17.624Z,8.00
2022-09-20T21:31:46.435Z,7.80
2022-09-20T21:34:15.463Z,8.80
2022-09-20T21:36:44.159Z,8.80
2022-09-20T21:39:11.536Z,9.10
2022-09-20T21:41:39.919Z,8.50
2022-09-20T21:44:09.451Z,8.90
2022-09-20T21:46:41.766Z,8.90
2022-09-20T21:49:10.775Z,9.70
2022-09-20T21:51:40.007Z,10.50
2022-09-20T21:54:06.877Z,10.90
2022-09-20T21:56:38.118Z,10.10
2022-09-20T21:59:07.417Z,9.90
2022-09-20T22:01:36.752Z,9.30
2022-09-20T22:04:09.007Z,9.50
2022-09-20T22:06:38.414Z,9.40
2022-09-20T22:09:07.937Z,10.00
2022-09-20T22:11:40.336Z,10.10
2022-09-20T22:14:09.330Z,10.30
2022-09-20T22:16:41.289Z,9.40
2022-09-20T22:19:12.999Z,10.50
2022-09-20T22:21:42.768Z,11.00
2022-09-20T22:24:11.508Z,11.60
2022-09-20T22:26:49.251Z,11.40
2022-09-20T22:29:17.713Z,11.70
2022-09-20T22:31:46.898Z,10.90
2022-09-20T22:34:19.600Z,10.90
2022-09-20T22:36:46.543Z,10.70
2022-09-20T22:39:14.943Z,10.10
2022-09-20T22:41:42.519Z,9.40
2022-09-20T22:44:10.281Z,8.90
2022-09-20T22:46:38.177Z,9.80
2022-09-20T22:49:08.874Z,9.60
2022-09-20T22:51:37.504Z,8.60
2022-09-20T22:54:07.445Z,8.70
2022-09-20T22:56:34.708Z,8.20
2022-09-20T22:59:08.851Z,8.70
2022-09-20T23:01:54.893Z,9.00
2022-09-20T23:04:23.040Z,8.70
2022-09-20T23:06:55.916Z,9.00
2022-09-20T23:09:27.198Z,8.40
2022-09-20T23:11:53.810Z,8.70
2022-09-20T23:14:21.347Z,9.50
2022-09-20T23:16:48.731Z,8.30
2022-09-20T23:19:16.633Z,9.30
2022-09-20T23:21:44.318Z,9.00
2022-09-20T23:24:13.464Z,8.90
2022-09-20T23:26:41.969Z,9.70
2022-09-20T23:29:11.566Z,9.80
2022-09-20T23:31:40.553Z,9.60
2022-09-20T23:34:08.532Z,9.70
2022-09-20T23:36:37.813Z,9.70
2022-09-20T23:39:07.574Z,9.90
2022-09-20T23:41:36.234Z,9.80
2022-09-20T23:44:05.964Z,9.00
2022-09-20T23:46:33.513Z,10.10
2022-09-20T23:49:00.627Z,9.00
2022-09-20T23:51:28.999Z,9.50
2022-09-20T23:53:55.804Z,9.90
2022-09-20T23:56:23.434Z,9.90
2022-09-20T23:58:50.438Z,9.90
